createdAt,value
2023-03-12T00:00:21.441Z,9.47
2023-03-12T00:02:48.777Z,10.80
2023-03-12T00:05:16.046Z,9.60
2023-03-12T00:07:43.046Z,11.00
2023-03-12T00:10:10.747Z,10.57
2023-03-12T00:12:40.798Z,10.73
2023-03-12T00:15:09.510Z,11.17
2023-03-12T00:17:36.817Z,12.10
2023-03-12T00:20:06.777Z,11.87
2023-03-12T00:22:35.245Z,11.67
2023-03-12T00:25:02.687Z,10.60
2023-03-12T00:27:29.742Z,10.37
2023-03-12T00:29:57.098Z,11.87
2023-03-12T00:32:24.099Z,11.57
2023-03-12T00:34:52.724Z,12.13
2023-03-12T00:37:20.539Z,12.37
2023-03-12T00:39:47.597Z,12.00
2023-03-12T00:42:15.023Z,11.50
2023-03-12T00:44:44.431Z,12.50
2023-03-12T00:47:12.694Z,11.87
2023-03-12T00:49:39.793Z,12.93
2023-03-12T00:52:07.334Z,13.90
2023-03-12T00:54:34.276Z,11.13
2023-03-12T00:57:02.007Z,13.53
2023-03-12T00:59:29.085Z,12.67
2023-03-12T01:01:56.091Z,13.57
2023-03-12T01:04:23.382Z,12.87
2023-03-12T01:06:50.701Z,11.77
2023-03-12T01:09:17.933Z,13.03
2023-03-12T01:11:45.080Z,13.07
2023-03-12T01:14:13.200Z,12.63
2023-03-12T01:16:40.472Z,13.10
2023-03-12T01:19:07.833Z,12.00
2023-03-12T01:21:36.038Z,12.27
2023-03-12T01:24:03.422Z,11.53
2023-03-12T01:26:30.615Z,11.70
2023-03-12T01:28:57.783Z,11.10
2023-03-12T01:31:25.288Z,9.77
2023-03-12T01:33:53.510Z,10.63
2023-03-12T01:36:23.998Z,9.90
2023-03-12T01:38:52.426Z,9.93
2023-03-12T01:41:20.061Z,10.73
2023-03-12T01:43:48.069Z,9.27
2023-03-12T01:46:27.233Z,9.13
2023-03-12T01:49:01.530Z,9.60
2023-03-12T01:51:41.004Z,10.17
2023-03-12T01:54:31.867Z,8.20
2023-03-12T01:57:00.663Z,8.53
2023-03-12T01:59:32.696Z,10.37
2023-03-12T02:01:59.814Z,8.70
2023-03-12T02:04:29.025Z,8.30
2023-03-12T02:07:04.997Z,8.23
2023-03-12T02:09:42.079Z,9.07
2023-03-12T02:12:11.424Z,8.60
2023-03-12T02:14:39.064Z,8.70
2023-03-12T02:17:07.203Z,7.67
2023-03-12T02:19:34.868Z,8.33
2023-03-12T02:22:03.268Z,8.83
2023-03-12T02:24:45.126Z,9.20
2023-03-12T02:27:12.524Z,8.33
2023-03-12T02:29:43.485Z,8.93
2023-03-12T02:32:24.528Z,9.67
2023-03-12T02:34:51.592Z,8.50
2023-03-12T02:37:19.717Z,10.00
2023-03-12T02:39:53.806Z,8.80
2023-03-12T02:42:22.776Z,8.63
2023-03-12T02:44:50.082Z,8.40
2023-03-12T02:47:18.354Z,8.93
2023-03-12T02:49:46.768Z,9.20
2023-03-12T02:52:13.867Z,8.13
2023-03-12T02:54:42.304Z,8.60
2023-03-12T02:57:10.190Z,7.93
2023-03-12T02:59:38.477Z,8.67
2023-03-12T03:02:09.681Z,8.30
2023-03-12T03:04:37.479Z,8.80
2023-03-12T03:07:05.046Z,8.43
2023-03-12T03:09:32.842Z,8.27
2023-03-12T03:12:00.013Z,7.93
2023-03-12T03:14:29.499Z,9.03
2023-03-12T03:16:57.331Z,7.63
2023-03-12T03:19:25.054Z,7.60
2023-03-12T03:21:52.191Z,7.23
2023-03-12T03:24:19.538Z,7.27
2023-03-12T03:26:46.522Z,7.93
2023-03-12T03:29:13.731Z,8.03
2023-03-12T03:31:42.289Z,7.53
2023-03-12T03:34:09.481Z,7.50
2023-03-12T03:36:38.886Z,7.30
2023-03-12T03:39:11.721Z,6.77
2023-03-12T03:41:39.001Z,6.30
2023-03-12T03:44:08.080Z,6.60
2023-03-12T03:46:37.785Z,6.60
2023-03-12T03:49:07.879Z,6.13
2023-03-12T03:51:37.123Z,7.37
2023-03-12T03:54:08.901Z,5.70
2023-03-12T03:56:36.118Z,6.07
2023-03-12T03:59:05.069Z,5.90
2023-03-12T04:01:34.975Z,6.90
2023-03-12T04:04:02.458Z,5.37
2023-03-12T04:06:32.016Z,5.47
2023-03-12T04:08:59.581Z,5.40
2023-03-12T04:11:28.960Z,5.00
2023-03-12T04:13:58.173Z,5.60
2023-03-12T04:16:28.732Z,5.20
2023-03-12T04:18:56.231Z,5.30
2023-03-12T04:21:25.158Z,4.93
2023-03-12T04:23:53.037Z,5.57
2023-03-12T04:26:23.918Z,5.30
2023-03-12T04:28:51.260Z,4.73
2023-03-12T04:31:18.699Z,5.03
2023-03-12T04:33:50.572Z,4.80
2023-03-12T04:36:19.767Z,4.53
2023-03-12T04:38:50.637Z,4.67
2023-03-12T04:41:21.640Z,5.07
2023-03-12T04:43:57.256Z,5.30
2023-03-12T04:46:24.488Z,5.00
2023-03-12T04:48:51.525Z,5.03
2023-03-12T04:51:18.613Z,4.40
2023-03-12T04:53:45.713Z,3.97
2023-03-12T04:56:14.060Z,5.00
2023-03-12T04:58:42.348Z,5.10
2023-03-12T05:01:22.070Z,4.10
2023-03-12T05:03:50.232Z,4.13
2023-03-12T05:06:19.029Z,3.97
2023-03-12T05:08:47.709Z,3.60
2023-03-12T05:11:15.919Z,4.50
2023-03-12T05:13:43.427Z,4.07
2023-03-12T05:16:11.630Z,4.03
2023-03-12T05:18:38.723Z,3.97
2023-03-12T05:21:17.916Z,3.93
2023-03-12T05:23:46.130Z,3.60
2023-03-12T05:26:28.068Z,3.83
2023-03-12T05:29:02.455Z,3.30
2023-03-12T05:31:33.238Z,3.57
2023-03-12T05:34:02.312Z,4.03
2023-03-12T05:36:29.838Z,3.90
2023-03-12T05:38:57.473Z,3.47
2023-03-12T05:41:28.948Z,3.60
2023-03-12T05:44:00.730Z,4.17
2023-03-12T05:46:29.647Z,3.53
2023-03-12T05:48:59.110Z,3.30
2023-03-12T05:51:26.658Z,3.37
2023-03-12T05:53:53.788Z,3.33
2023-03-12T05:56:20.820Z,3.67
2023-03-12T05:58:50.419Z,3.40
2023-03-12T06:01:26.662Z,3.37
2023-03-12T06:03:55.704Z,3.30
2023-03-12T06:06:25.052Z,3.23
2023-03-12T06:08:52.581Z,3.73
2023-03-12T06:11:19.960Z,3.17
2023-03-12T06:13:48.044Z,3.40
2023-03-12T06:16:23.881Z,2.83
2023-03-12T06:18:58.473Z,3.23
2023-03-12T06:21:31.945Z,3.53
2023-03-12T06:24:00.292Z,3.07
2023-03-12T06:26:38.006Z,3.17
2023-03-12T06:29:05.014Z,2.90
2023-03-12T06:31:33.231Z,3.00
2023-03-12T06:34:00.221Z,2.57
2023-03-12T06:36:27.256Z,2.97
2023-03-12T06:38:57.018Z,2.67
2023-03-12T06:41:24.603Z,3.23
2023-03-12T06:43:51.845Z,2.90
2023-03-12T06:46:25.813Z,2.60
2023-03-12T06:48:53.058Z,2.30
2023-03-12T06:51:21.043Z,2.87
2023-03-12T06:53:48.405Z,3.23
2023-03-12T06:56:15.577Z,2.53
2023-03-12T06:58:42.548Z,2.40
2023-03-12T07:01:09.875Z,2.10
2023-03-12T07:03:37.330Z,2.50
2023-03-12T07:06:05.280Z,2.80
2023-03-12T07:08:32.606Z,2.20
2023-03-12T07:11:03.416Z,2.47
2023-03-12T07:13:30.796Z,2.47
2023-03-12T07:16:00.290Z,2.00
2023-03-12T07:18:27.565Z,2.07
2023-03-12T07:20:55.450Z,2.10
2023-03-12T07:23:23.223Z,2.00
2023-03-12T07:25:50.980Z,2.70
2023-03-12T07:28:20.410Z,2.27
2023-03-12T07:30:53.095Z,2.30
2023-03-12T07:33:21.880Z,1.97
2023-03-12T07:35:51.708Z,1.93
2023-03-12T07:38:19.252Z,1.90
2023-03-12T07:40:51.456Z,1.50
2023-03-12T07:43:21.556Z,1.50
2023-03-12T07:45:50.315Z,1.43
2023-03-12T07:48:19.588Z,1.40
2023-03-12T07:50:47.190Z,1.90
2023-03-12T07:53:14.316Z,1.93
2023-03-12T07:55:48.378Z,2.30
2023-03-12T07:58:17.887Z,1.93
2023-03-12T08:00:45.506Z,2.67
2023-03-12T08:03:13.491Z,2.67
2023-03-12T08:05:40.844Z,1.43
2023-03-12T08:08:08.253Z,2.40
2023-03-12T08:10:36.183Z,1.93
2023-03-12T08:13:04.581Z,1.70
2023-03-12T08:15:31.655Z,1.80
2023-03-12T08:17:59.511Z,2.50
2023-03-12T08:20:26.497Z,2.00
2023-03-12T08:22:53.511Z,1.70
2023-03-12T08:25:21.204Z,2.60
2023-03-12T08:27:48.320Z,2.00
2023-03-12T08:30:15.660Z,1.97
2023-03-12T08:32:42.714Z,1.47
2023-03-12T08:35:12.508Z,1.73
2023-03-12T08:37:39.493Z,1.53
2023-03-12T08:40:13.715Z,1.60
2023-03-12T08:42:42.168Z,1.70
2023-03-12T08:45:10.949Z,1.40
2023-03-12T08:47:42.534Z,1.83
2023-03-12T08:50:15.281Z,1.70
2023-03-12T08:52:43.289Z,1.80
2023-03-12T08:55:11.897Z,2.00
2023-03-12T08:57:39.891Z,2.17
2023-03-12T09:00:12.653Z,2.00
2023-03-12T09:02:39.886Z,2.07
2023-03-12T09:05:07.567Z,1.40
2023-03-12T09:07:34.852Z,1.93
2023-03-12T09:10:02.177Z,2.00
2023-03-12T09:12:29.201Z,1.87
2023-03-12T09:15:03.455Z,2.00
2023-03-12T09:17:32.250Z,2.13
2023-03-12T09:20:00.973Z,2.00
2023-03-12T09:22:30.602Z,2.10
2023-03-12T09:24:57.966Z,1.90
2023-03-12T09:27:25.091Z,2.27
2023-03-12T09:30:00.010Z,1.93
2023-03-12T09:32:29.859Z,1.97
2023-03-12T09:35:01.885Z,2.40
2023-03-12T09:37:29.466Z,2.40
2023-03-12T09:39:56.701Z,1.90
2023-03-12T09:42:46.244Z,2.00
2023-03-12T09:45:23.816Z,1.93
2023-03-12T09:48:08.011Z,2.67
2023-03-12T09:50:40.715Z,1.70
2023-03-12T09:53:42.748Z,1.80
2023-03-12T09:56:15.076Z,1.80
2023-03-12T09:58:44.567Z,1.70
2023-03-12T10:01:30.319Z,1.60
2023-03-12T10:04:12.734Z,1.77
2023-03-12T10:06:47.247Z,2.43
2023-03-12T10:09:40.834Z,1.97
2023-03-12T10:12:24.455Z,1.63
2023-03-12T10:15:31.599Z,2.03
2023-03-12T10:18:17.004Z,2.07
2023-03-12T10:21:29.114Z,1.83
2023-03-12T10:24:06.122Z,2.07
2023-03-12T10:26:50.420Z,3.60
2023-03-12T10:29:39.632Z,2.27
2023-03-12T10:32:37.799Z,2.77
2023-03-12T10:35:16.246Z,1.97
2023-03-12T10:37:46.611Z,2.80
2023-03-12T10:40:17.470Z,3.07
2023-03-12T10:42:44.694Z,2.23
2023-03-12T10:45:20.553Z,2.50
2023-03-12T10:47:57.221Z,1.97
2023-03-12T10:50:27.582Z,1.90
2023-03-12T10:53:12.976Z,2.10
2023-03-12T10:55:40.273Z,2.73
2023-03-12T10:58:07.158Z,2.13
2023-03-12T11:00:34.221Z,2.30
2023-03-12T11:03:21.566Z,2.27
2023-03-12T11:05:52.093Z,2.57
2023-03-12T11:08:33.540Z,1.90
2023-03-12T11:11:02.376Z,2.17
2023-03-12T11:13:36.771Z,2.30
2023-03-12T11:16:31.873Z,2.77
2023-03-12T11:19:01.610Z,2.23
2023-03-12T11:21:33.517Z,2.03
2023-03-12T11:24:00.563Z,2.07
2023-03-12T11:26:36.309Z,1.90
2023-03-12T11:29:11.924Z,2.13
2023-03-12T11:31:47.249Z,2.37
2023-03-12T11:34:29.066Z,2.53
2023-03-12T11:37:01.620Z,2.63
2023-03-12T11:39:55.533Z,2.33
2023-03-12T11:42:56.446Z,2.23
2023-03-12T11:45:26.379Z,2.30
2023-03-12T11:48:16.023Z,2.47
2023-03-12T11:51:12.842Z,2.50
2023-03-12T11:54:08.208Z,3.00
2023-03-12T11:56:44.320Z,2.40
2023-03-12T11:59:26.422Z,2.70
2023-03-12T12:01:56.208Z,2.63
2023-03-12T12:04:48.022Z,2.60
2023-03-12T12:07:30.074Z,2.33
2023-03-12T12:09:59.679Z,2.93
2023-03-12T12:12:45.675Z,2.53
2023-03-12T12:15:35.002Z,2.10
2023-03-12T12:18:36.155Z,2.53
2023-03-12T12:21:34.677Z,2.90
2023-03-12T12:24:18.502Z,2.57
2023-03-12T12:27:08.271Z,2.70
2023-03-12T12:30:29.719Z,2.47
2023-03-12T12:33:08.237Z,2.87
2023-03-12T12:35:43.253Z,2.47
2023-03-12T12:38:37.685Z,2.73
2023-03-12T12:41:27.225Z,3.07
2023-03-12T12:44:03.398Z,3.10
2023-03-12T12:46:32.729Z,2.87
2023-03-12T12:49:01.735Z,2.70
2023-03-12T12:51:37.026Z,3.00
2023-03-12T12:54:22.826Z,3.27
2023-03-12T12:57:11.139Z,2.67
2023-03-12T12:59:38.034Z,2.70
2023-03-12T13:02:16.945Z,2.97
2023-03-12T13:04:45.195Z,2.70
2023-03-12T13:07:12.098Z,2.30
2023-03-12T13:09:43.826Z,2.33
2023-03-12T13:12:34.823Z,2.83
2023-03-12T13:15:22.418Z,3.20
2023-03-12T13:17:52.525Z,2.60
2023-03-12T13:20:21.062Z,2.93
2023-03-12T13:22:53.946Z,2.67
2023-03-12T13:25:45.618Z,2.73
2023-03-12T13:28:42.034Z,2.67
2023-03-12T13:31:28.756Z,2.90
2023-03-12T13:34:17.486Z,2.33
2023-03-12T13:36:46.613Z,2.67
2023-03-12T13:39:16.520Z,2.80
2023-03-12T13:41:52.443Z,3.03
2023-03-12T13:44:38.812Z,2.83
2023-03-12T13:47:23.459Z,2.20
2023-03-12T13:50:00.933Z,2.70
2023-03-12T13:52:37.709Z,2.23
2023-03-12T13:55:13.848Z,2.67
2023-03-12T13:57:45.013Z,3.07
2023-03-12T14:00:17.174Z,2.90
2023-03-12T14:03:02.752Z,2.43
2023-03-12T14:05:33.124Z,2.10
2023-03-12T14:08:19.077Z,2.33
2023-03-12T14:11:29.435Z,2.53
2023-03-12T14:14:34.323Z,3.10
2023-03-12T14:17:05.792Z,2.60
2023-03-12T14:19:35.548Z,2.10
2023-03-12T14:22:06.852Z,2.97
2023-03-12T14:24:47.374Z,2.40
2023-03-12T14:27:18.045Z,2.23
2023-03-12T14:29:52.509Z,2.80
2023-03-12T14:32:23.153Z,2.57
2023-03-12T14:35:08.282Z,2.17
2023-03-12T14:37:44.477Z,2.80
2023-03-12T14:40:26.860Z,2.43
2023-03-12T14:42:55.265Z,2.33
2023-03-12T14:45:23.505Z,3.10
2023-03-12T14:47:59.114Z,2.70
2023-03-12T14:50:30.059Z,2.60
2023-03-12T14:53:13.723Z,1.90
2023-03-12T14:55:40.732Z,2.43
2023-03-12T14:58:18.833Z,2.23
2023-03-12T15:00:59.445Z,2.50
2023-03-12T15:03:28.735Z,2.80
2023-03-12T15:05:56.926Z,2.73
2023-03-12T15:08:25.874Z,2.30
2023-03-12T15:10:58.505Z,1.97
2023-03-12T15:13:27.608Z,2.50
2023-03-12T15:15:56.095Z,2.43
2023-03-12T15:18:31.216Z,2.47
2023-03-12T15:21:01.095Z,2.10
2023-03-12T15:23:31.229Z,1.90
2023-03-12T15:26:20.114Z,3.27
2023-03-12T15:29:27.548Z,9.77
2023-03-12T15:32:00.113Z,2.80
2023-03-12T15:34:34.746Z,2.40
2023-03-12T15:37:05.356Z,2.40
2023-03-12T15:39:35.035Z,2.73
2023-03-12T15:42:10.720Z,2.63
2023-03-12T15:44:51.842Z,2.07
2023-03-12T15:47:22.652Z,2.37
2023-03-12T15:50:18.990Z,2.53
2023-03-12T15:53:18.580Z,2.27
2023-03-12T15:56:05.495Z,2.33
2023-03-12T15:59:21.638Z,1.40
2023-03-12T16:01:56.559Z,1.67
2023-03-12T16:04:24.794Z,3.10
2023-03-12T16:06:53.288Z,1.90
2023-03-12T16:09:35.375Z,2.33
2023-03-12T16:12:02.657Z,1.70
2023-03-12T16:14:31.873Z,1.73
2023-03-12T16:16:59.252Z,1.73
2023-03-12T16:19:29.553Z,2.20
2023-03-12T16:21:56.600Z,1.90
2023-03-12T16:24:23.585Z,2.57
2023-03-12T16:27:00.613Z,2.07
2023-03-12T16:29:33.362Z,2.60
2023-03-12T16:32:00.829Z,1.83
2023-03-12T16:34:28.329Z,1.60
2023-03-12T16:36:55.385Z,2.07
2023-03-12T16:39:23.850Z,2.63
2023-03-12T16:41:51.341Z,2.20
2023-03-12T16:44:21.645Z,1.90
2023-03-12T16:46:48.879Z,2.50
2023-03-12T16:49:18.057Z,1.57
2023-03-12T16:51:45.107Z,1.97
2023-03-12T16:54:12.653Z,1.57
2023-03-12T16:56:46.267Z,1.80
2023-03-12T16:59:33.313Z,1.93
2023-03-12T17:02:00.343Z,1.73
2023-03-12T17:04:27.350Z,1.93
2023-03-12T17:06:55.428Z,1.70
2023-03-12T17:09:23.100Z,1.90
2023-03-12T17:11:52.222Z,2.03
2023-03-12T17:14:22.150Z,2.90
2023-03-12T17:16:50.162Z,2.90
2023-03-12T17:19:17.816Z,2.13
2023-03-12T17:21:45.664Z,1.43
2023-03-12T17:24:16.704Z,1.77
2023-03-12T17:26:45.592Z,2.00
2023-03-12T17:29:12.750Z,1.80
2023-03-12T17:31:41.229Z,1.50
2023-03-12T17:34:08.872Z,1.50
2023-03-12T17:36:37.944Z,1.73
2023-03-12T17:39:05.003Z,1.17
2023-03-12T17:41:32.958Z,1.20
2023-03-12T17:44:02.206Z,1.77
2023-03-12T17:46:30.703Z,2.47
2023-03-12T17:48:57.660Z,1.90
2023-03-12T17:51:24.932Z,2.40
2023-03-12T17:53:52.141Z,2.03
2023-03-12T17:56:19.227Z,2.03
2023-03-12T17:58:46.418Z,1.40
2023-03-12T18:01:14.545Z,1.83
2023-03-12T18:03:44.094Z,1.83
2023-03-12T18:06:12.036Z,1.40
2023-03-12T18:08:38.984Z,1.43
2023-03-12T18:11:05.998Z,2.43
2023-03-12T18:13:33.217Z,1.20
2023-03-12T18:16:00.559Z,1.70
2023-03-12T18:18:27.878Z,1.97
2023-03-12T18:20:55.026Z,1.77
2023-03-12T18:23:23.702Z,1.67
2023-03-12T18:25:50.733Z,2.50
2023-03-12T18:28:17.703Z,1.70
2023-03-12T18:30:48.377Z,1.70
2023-03-12T18:33:15.561Z,1.50
2023-03-12T18:35:48.688Z,1.80
2023-03-12T18:38:15.831Z,2.23
2023-03-12T18:40:42.691Z,1.60
2023-03-12T18:43:09.710Z,2.33
2023-03-12T18:45:42.593Z,2.13
2023-03-12T18:48:10.306Z,2.10
2023-03-12T18:50:37.640Z,2.30
2023-03-12T18:53:04.783Z,1.90
2023-03-12T18:55:32.306Z,1.97
2023-03-12T18:57:59.350Z,1.97
2023-03-12T19:00:26.413Z,1.73
2023-03-12T19:02:53.420Z,2.20
2023-03-12T19:05:20.550Z,2.13
2023-03-12T19:07:47.543Z,2.77
2023-03-12T19:10:15.676Z,2.87
2023-03-12T19:12:52.042Z,2.10
2023-03-12T19:15:22.670Z,2.80
2023-03-12T19:17:50.045Z,2.40
2023-03-12T19:20:17.244Z,2.90
2023-03-12T19:22:44.223Z,2.90
2023-03-12T19:25:11.344Z,2.50
2023-03-12T19:27:38.372Z,2.53
2023-03-12T19:30:06.046Z,2.30
2023-03-12T19:32:42.269Z,2.30
2023-03-12T19:35:12.411Z,1.87
2023-03-12T19:37:39.526Z,1.90
2023-03-12T19:40:07.326Z,2.40
2023-03-12T19:42:34.462Z,2.37
2023-03-12T19:45:01.506Z,2.00
2023-03-12T19:47:29.411Z,2.10
2023-03-12T19:49:56.423Z,2.63
2023-03-12T19:52:23.668Z,2.67
2023-03-12T19:55:03.256Z,3.13
2023-03-12T19:57:30.797Z,2.23
2023-03-12T19:59:57.804Z,2.50
2023-03-12T20:02:26.109Z,2.63
2023-03-12T20:04:53.292Z,2.50
2023-03-12T20:07:20.198Z,2.10
2023-03-12T20:09:47.205Z,2.30
2023-03-12T20:12:14.598Z,2.27
2023-03-12T20:14:42.928Z,2.60
2023-03-12T20:17:11.139Z,2.23
2023-03-12T20:19:39.030Z,2.80
2023-03-12T20:22:09.156Z,3.00
2023-03-12T20:24:36.122Z,2.90
2023-03-12T20:27:03.967Z,2.87
2023-03-12T20:29:31.194Z,2.30
2023-03-12T20:31:58.296Z,2.87
2023-03-12T20:34:25.437Z,2.43
2023-03-12T20:36:52.396Z,2.20
2023-03-12T20:39:19.540Z,2.03
2023-03-12T20:41:46.571Z,2.13
2023-03-12T20:44:13.565Z,2.20
2023-03-12T20:46:41.934Z,2.67
2023-03-12T20:49:08.879Z,3.07
2023-03-12T20:51:36.159Z,2.47
2023-03-12T20:54:04.577Z,2.23
2023-03-12T20:56:31.562Z,2.30
2023-03-12T20:58:59.566Z,2.10
2023-03-12T21:01:26.876Z,2.73
2023-03-12T21:03:57.472Z,1.93
2023-03-12T21:06:24.880Z,2.13
2023-03-12T21:08:51.804Z,2.20
2023-03-12T21:11:18.797Z,2.40
2023-03-12T21:13:46.228Z,2.70
2023-03-12T21:16:13.322Z,1.80
2023-03-12T21:18:41.817Z,2.27
2023-03-12T21:21:11.944Z,2.20
2023-03-12T21:23:39.049Z,2.23
2023-03-12T21:26:09.509Z,1.80
2023-03-12T21:28:37.243Z,1.90
2023-03-12T21:31:10.210Z,2.27
2023-03-12T21:33:38.013Z,1.90
2023-03-12T21:36:10.235Z,2.50
2023-03-12T21:38:39.180Z,2.70
2023-03-12T21:41:14.789Z,2.37
2023-03-12T21:43:42.842Z,2.27
2023-03-12T21:46:12.400Z,2.20
2023-03-12T21:48:40.027Z,2.20
2023-03-12T21:51:11.761Z,3.00
2023-03-12T21:53:38.947Z,2.80
2023-03-12T21:56:07.895Z,2.40
2023-03-12T21:58:36.018Z,2.70
2023-03-12T22:01:12.391Z,2.50
2023-03-12T22:03:40.639Z,2.47
2023-03-12T22:06:08.720Z,3.27
2023-03-12T22:08:36.194Z,3.20
2023-03-12T22:11:04.536Z,2.53
2023-03-12T22:13:31.831Z,2.93
2023-03-12T22:16:01.098Z,3.10
2023-03-12T22:18:29.424Z,2.60
2023-03-12T22:20:58.826Z,2.80
2023-03-12T22:23:26.314Z,2.70
2023-03-12T22:25:53.884Z,3.40
2023-03-12T22:28:21.371Z,3.57
2023-03-12T22:30:48.392Z,2.90
2023-03-12T22:33:15.342Z,3.20
2023-03-12T22:35:46.348Z,2.97
2023-03-12T22:38:13.548Z,2.83
2023-03-12T22:40:41.183Z,3.00
2023-03-12T22:43:08.513Z,2.97
2023-03-12T22:45:36.223Z,3.73
2023-03-12T22:48:03.387Z,3.27
2023-03-12T22:50:30.497Z,3.37
2023-03-12T22:52:58.127Z,4.27
2023-03-12T22:55:25.179Z,3.53
2023-03-12T22:57:52.173Z,3.40
2023-03-12T23:00:24.079Z,3.70
2023-03-12T23:02:51.174Z,4.93
2023-03-12T23:05:18.236Z,4.23
2023-03-12T23:07:45.702Z,4.20
2023-03-12T23:10:12.978Z,5.13
2023-03-12T23:12:40.122Z,4.67
2023-03-12T23:15:09.041Z,4.03
2023-03-12T23:17:36.032Z,3.90
2023-03-12T23:20:04.258Z,4.03
2023-03-12T23:22:31.408Z,4.20
2023-03-12T23:24:58.373Z,3.93
2023-03-12T23:27:25.512Z,3.63
2023-03-12T23:29:52.465Z,3.63
2023-03-12T23:32:19.494Z,3.80
2023-03-12T23:34:46.508Z,3.83
2023-03-12T23:37:14.443Z,3.50
2023-03-12T23:39:53.612Z,4.07
2023-03-12T23:42:22.343Z,3.70
2023-03-12T23:44:49.319Z,4.27
2023-03-12T23:47:16.256Z,4.27
2023-03-12T23:49:43.592Z,3.10
2023-03-12T23:52:10.651Z,3.33
2023-03-12T23:54:37.756Z,3.80
2023-03-12T23:57:04.751Z,3.97
2023-03-12T23:59:31.680Z,4.43
